Terminal Aerodrome Forecast
Issued by NWS Mt. Holly, NJ

Home | Current Version | Previous Version | Text Only | Print | Product List | Glossary On
Versions: 1 2 3 4 5 6 7 8 9 10 11 12 13 14 15 16 17 18 19 20 21
000
FTUS41 KPHI 271545 AAB
TAFRDG
TAF AMD
KRDG 271545Z 2716/2812 VRB03KT 6SM BR VCSH OVC006
     FM271800 24004KT 6SM BR VCSH BKN020 OVC050
     FM272200 22006KT P6SM VCSH BKN050
     FM280400 VRB02KT 3SM BR BKN100
     FM280700 00000KT 3/4SM BR OVC006=

USA.gov is the U.S. government's official web portal to all federal, state and local government web resources and services.